South Tamworth, New Hampshire
Current Conditions -  °F | °C
As of 1:35 AM on Wednesday 28 Jan 2015 (Local Time) from KLCI Reporting Station
Overcast Overcast  
Wind Chill:   Ceiling: 1400
Heat Index: 10°   Visibility: 2.5mi
Dew Point:   Wind: 7mph
Humidity: 79%   Direction: 290°WNW
Pressure: 29.66"   Gusts: NA
Location:  43.82°N, 71.3°W
Report Text: KLCI 280635Z AUTO 29006KT 2 1/2SM BKN014 BKN021 OVC027 M12/M15 A2966 RMK AO1
Loading
Personal Weather Stations






























Interactive Weather Map New forecast layout! Learn more

10-Day Weather Forecast

Advertisements
Track Severe Weather on mobile